sensor_id;sensor_type;location;lat;lon;timestamp;P1;durP1;ratioP1;P2;durP2;ratioP2
11807;SDS011;5961;42.640;23.380;2022-12-07T00:01:49;38.10;;;22.97;;
11807;SDS011;5961;42.640;23.380;2022-12-07T00:04:17;39.83;;;21.60;;
11807;SDS011;5961;42.640;23.380;2022-12-07T00:06:46;36.40;;;21.73;;
11807;SDS011;5961;42.640;23.380;2022-12-07T00:09:16;39.43;;;20.97;;
11807;SDS011;5961;42.640;23.380;2022-12-07T00:11:44;38.03;;;20.20;;
11807;SDS011;5961;42.640;23.380;2022-12-07T00:14:15;33.27;;;18.37;;
11807;SDS011;5961;42.640;23.380;2022-12-07T00:16:42;34.43;;;19.40;;
11807;SDS011;5961;42.640;23.380;2022-12-07T00:19:10;34.97;;;20.20;;
11807;SDS011;5961;42.640;23.380;2022-12-07T00:21:39;35.23;;;21.37;;
11807;SDS011;5961;42.640;23.380;2022-12-07T00:24:07;32.27;;;19.97;;
11807;SDS011;5961;42.640;23.380;2022-12-07T00:26:36;36.73;;;20.77;;
11807;SDS011;5961;42.640;23.380;2022-12-07T00:29:04;30.97;;;19.77;;
11807;SDS011;5961;42.640;23.380;2022-12-07T00:31:33;32.73;;;19.27;;
11807;SDS011;5961;42.640;23.380;2022-12-07T00:34:04;31.77;;;18.97;;
11807;SDS011;5961;42.640;23.380;2022-12-07T00:36:32;32.30;;;20.07;;
11807;SDS011;5961;42.640;23.380;2022-12-07T00:38:59;38.37;;;20.70;;
11807;SDS011;5961;42.640;23.380;2022-12-07T00:41:29;35.40;;;20.37;;
11807;SDS011;5961;42.640;23.380;2022-12-07T00:43:56;38.40;;;20.87;;
11807;SDS011;5961;42.640;23.380;2022-12-07T00:46:23;34.47;;;20.10;;
11807;SDS011;5961;42.640;23.380;2022-12-07T00:48:51;34.87;;;19.73;;
11807;SDS011;5961;42.640;23.380;2022-12-07T00:51:18;31.77;;;18.80;;
11807;SDS011;5961;42.640;23.380;2022-12-07T00:53:46;38.90;;;19.53;;
11807;SDS011;5961;42.640;23.380;2022-12-07T00:56:14;36.57;;;20.27;;
11807;SDS011;5961;42.640;23.380;2022-12-07T00:58:44;34.57;;;19.63;;
11807;SDS011;5961;42.640;23.380;2022-12-07T01:01:16;37.53;;;19.27;;
11807;SDS011;5961;42.640;23.380;2022-12-07T01:03:42;33.27;;;18.40;;
11807;SDS011;5961;42.640;23.380;2022-12-07T01:06:09;32.10;;;17.80;;
11807;SDS011;5961;42.640;23.380;2022-12-07T01:08:41;29.47;;;17.00;;
11807;SDS011;5961;42.640;23.380;2022-12-07T01:11:09;32.67;;;16.13;;
11807;SDS011;5961;42.640;23.380;2022-12-07T01:13:39;31.23;;;17.73;;
11807;SDS011;5961;42.640;23.380;2022-12-07T01:16:08;28.27;;;15.90;;
11807;SDS011;5961;42.640;23.380;2022-12-07T01:18:38;29.10;;;16.60;;
11807;SDS011;5961;42.640;23.380;2022-12-07T01:21:05;27.47;;;16.47;;
11807;SDS011;5961;42.640;23.380;2022-12-07T01:23:34;29.07;;;17.10;;
11807;SDS011;5961;42.640;23.380;2022-12-07T01:26:02;33.77;;;17.90;;
11807;SDS011;5961;42.640;23.380;2022-12-07T01:28:30;38.10;;;21.70;;
11807;SDS011;5961;42.640;23.380;2022-12-07T01:30:58;38.77;;;21.37;;
11807;SDS011;5961;42.640;23.380;2022-12-07T01:33:27;41.27;;;23.40;;
11807;SDS011;5961;42.640;23.380;2022-12-07T01:36:00;38.13;;;22.33;;
11807;SDS011;5961;42.640;23.380;2022-12-07T01:38:27;39.37;;;21.33;;
11807;SDS011;5961;42.640;23.380;2022-12-07T01:40:54;39.50;;;21.57;;
11807;SDS011;5961;42.640;23.380;2022-12-07T01:43:22;36.23;;;20.60;;
11807;SDS011;5961;42.640;23.380;2022-12-07T01:45:51;38.77;;;20.70;;
11807;SDS011;5961;42.640;23.380;2022-12-07T01:48:19;36.50;;;18.93;;
11807;SDS011;5961;42.640;23.380;2022-12-07T01:50:51;32.40;;;19.77;;
11807;SDS011;5961;42.640;23.380;2022-12-07T01:53:19;31.00;;;17.23;;
11807;SDS011;5961;42.640;23.380;2022-12-07T01:55:48;27.67;;;16.67;;
11807;SDS011;5961;42.640;23.380;2022-12-07T01:58:18;31.17;;;18.43;;
11807;SDS011;5961;42.640;23.380;2022-12-07T02:00:46;38.70;;;20.77;;
11807;SDS011;5961;42.640;23.380;2022-12-07T02:03:13;33.50;;;19.80;;
11807;SDS011;5961;42.640;23.380;2022-12-07T02:05:44;41.53;;;21.83;;
11807;SDS011;5961;42.640;23.380;2022-12-07T02:08:14;37.90;;;21.17;;
11807;SDS011;5961;42.640;23.380;2022-12-07T02:10:42;32.97;;;19.13;;
11807;SDS011;5961;42.640;23.380;2022-12-07T02:13:10;38.90;;;19.83;;
11807;SDS011;5961;42.640;23.380;2022-12-07T02:15:42;34.23;;;20.43;;
11807;SDS011;5961;42.640;23.380;2022-12-07T02:18:19;35.07;;;20.77;;
11807;SDS011;5961;42.640;23.380;2022-12-07T02:20:53;36.67;;;22.00;;
11807;SDS011;5961;42.640;23.380;2022-12-07T02:26:37;39.20;;;21.20;;
11807;SDS011;5961;42.640;23.380;2022-12-07T02:29:19;33.60;;;19.87;;
11807;SDS011;5961;42.640;23.380;2022-12-07T02:31:51;35.13;;;19.60;;
11807;SDS011;5961;42.640;23.380;2022-12-07T02:34:26;37.77;;;22.20;;
11807;SDS011;5961;42.640;23.380;2022-12-07T02:37:00;40.77;;;22.80;;
11807;SDS011;5961;42.640;23.380;2022-12-07T02:39:33;42.07;;;22.70;;
11807;SDS011;5961;42.640;23.380;2022-12-07T02:42:09;40.07;;;23.23;;
11807;SDS011;5961;42.640;23.380;2022-12-07T02:44:41;37.27;;;22.43;;
11807;SDS011;5961;42.640;23.380;2022-12-07T02:47:10;44.27;;;23.93;;
11807;SDS011;5961;42.640;23.380;2022-12-07T02:49:40;40.63;;;22.73;;
11807;SDS011;5961;42.640;23.380;2022-12-07T02:52:08;42.07;;;23.30;;
11807;SDS011;5961;42.640;23.380;2022-12-07T02:54:34;38.00;;;22.20;;
11807;SDS011;5961;42.640;23.380;2022-12-07T02:57:03;41.13;;;24.10;;
11807;SDS011;5961;42.640;23.380;2022-12-07T02:59:44;39.77;;;22.67;;
11807;SDS011;5961;42.640;23.380;2022-12-07T03:02:24;40.93;;;22.10;;
11807;SDS011;5961;42.640;23.380;2022-12-07T03:05:01;41.53;;;21.73;;
11807;SDS011;5961;42.640;23.380;2022-12-07T03:07:39;39.20;;;22.60;;
11807;SDS011;5961;42.640;23.380;2022-12-07T03:10:17;36.80;;;21.50;;
11807;SDS011;5961;42.640;23.380;2022-12-07T03:12:50;39.60;;;22.73;;
11807;SDS011;5961;42.640;23.380;2022-12-07T03:15:26;42.63;;;20.83;;
11807;SDS011;5961;42.640;23.380;2022-12-07T03:17:57;39.57;;;21.50;;
11807;SDS011;5961;42.640;23.380;2022-12-07T03:20:27;37.77;;;21.00;;
11807;SDS011;5961;42.640;23.380;2022-12-07T03:22:56;36.47;;;22.07;;
11807;SDS011;5961;42.640;23.380;2022-12-07T03:25:24;39.30;;;20.87;;
11807;SDS011;5961;42.640;23.380;2022-12-07T03:27:54;43.10;;;21.57;;
11807;SDS011;5961;42.640;23.380;2022-12-07T03:30:24;35.30;;;20.80;;
11807;SDS011;5961;42.640;23.380;2022-12-07T03:32:56;36.87;;;21.33;;
11807;SDS011;5961;42.640;23.380;2022-12-07T03:35:28;36.83;;;20.30;;
11807;SDS011;5961;42.640;23.380;2022-12-07T03:37:59;34.47;;;21.13;;
11807;SDS011;5961;42.640;23.380;2022-12-07T03:40:30;36.20;;;20.77;;
11807;SDS011;5961;42.640;23.380;2022-12-07T03:43:03;39.53;;;20.97;;
11807;SDS011;5961;42.640;23.380;2022-12-07T03:45:34;39.47;;;21.93;;
11807;SDS011;5961;42.640;23.380;2022-12-07T03:48:07;36.27;;;20.83;;
11807;SDS011;5961;42.640;23.380;2022-12-07T03:50:43;38.13;;;20.97;;
11807;SDS011;5961;42.640;23.380;2022-12-07T03:53:18;36.93;;;21.13;;
11807;SDS011;5961;42.640;23.380;2022-12-07T03:55:48;40.00;;;21.43;;
11807;SDS011;5961;42.640;23.380;2022-12-07T03:58:16;33.93;;;20.27;;
11807;SDS011;5961;42.640;23.380;2022-12-07T04:00:46;35.20;;;19.77;;
11807;SDS011;5961;42.640;23.380;2022-12-07T04:03:14;37.30;;;20.83;;
11807;SDS011;5961;42.640;23.380;2022-12-07T04:05:41;30.87;;;18.90;;
11807;SDS011;5961;42.640;23.380;2022-12-07T04:08:09;32.77;;;20.43;;
11807;SDS011;5961;42.640;23.380;2022-12-07T04:10:36;37.47;;;21.17;;
11807;SDS011;5961;42.640;23.380;2022-12-07T04:13:02;38.07;;;21.87;;
11807;SDS011;5961;42.640;23.380;2022-12-07T04:15:29;40.17;;;21.40;;
11807;SDS011;5961;42.640;23.380;2022-12-07T04:17:57;33.30;;;20.67;;
11807;SDS011;5961;42.640;23.380;2022-12-07T04:20:24;38.47;;;22.70;;
11807;SDS011;5961;42.640;23.380;2022-12-07T04:22:51;38.87;;;21.87;;
11807;SDS011;5961;42.640;23.380;2022-12-07T04:25:17;35.07;;;20.50;;
11807;SDS011;5961;42.640;23.380;2022-12-07T04:27:44;38.73;;;22.07;;
11807;SDS011;5961;42.640;23.380;2022-12-07T04:30:11;41.43;;;22.40;;
11807;SDS011;5961;42.640;23.380;2022-12-07T04:32:38;37.97;;;21.43;;
11807;SDS011;5961;42.640;23.380;2022-12-07T04:35:06;37.70;;;20.30;;
11807;SDS011;5961;42.640;23.380;2022-12-07T04:37:33;36.83;;;21.17;;
11807;SDS011;5961;42.640;23.380;2022-12-07T04:40:00;40.20;;;22.27;;
11807;SDS011;5961;42.640;23.380;2022-12-07T04:42:27;40.00;;;22.60;;
11807;SDS011;5961;42.640;23.380;2022-12-07T04:44:54;35.83;;;22.23;;
11807;SDS011;5961;42.640;23.380;2022-12-07T04:47:20;37.37;;;21.03;;
11807;SDS011;5961;42.640;23.380;2022-12-07T04:49:47;42.23;;;21.17;;
11807;SDS011;5961;42.640;23.380;2022-12-07T04:52:15;38.20;;;21.30;;
11807;SDS011;5961;42.640;23.380;2022-12-07T04:54:42;37.53;;;21.20;;
11807;SDS011;5961;42.640;23.380;2022-12-07T04:57:08;46.13;;;21.73;;
11807;SDS011;5961;42.640;23.380;2022-12-07T04:59:35;36.57;;;21.60;;
11807;SDS011;5961;42.640;23.380;2022-12-07T05:02:02;36.80;;;22.80;;
11807;SDS011;5961;42.640;23.380;2022-12-07T05:04:28;38.80;;;21.57;;
11807;SDS011;5961;42.640;23.380;2022-12-07T05:06:55;41.13;;;23.60;;
11807;SDS011;5961;42.640;23.380;2022-12-07T05:09:23;42.57;;;24.07;;
11807;SDS011;5961;42.640;23.380;2022-12-07T05:11:50;42.27;;;23.90;;
11807;SDS011;5961;42.640;23.380;2022-12-07T05:14:17;46.10;;;23.83;;
11807;SDS011;5961;42.640;23.380;2022-12-07T05:16:45;42.97;;;24.57;;
11807;SDS011;5961;42.640;23.380;2022-12-07T05:19:14;39.20;;;22.47;;
11807;SDS011;5961;42.640;23.380;2022-12-07T05:21:40;36.23;;;21.53;;
11807;SDS011;5961;42.640;23.380;2022-12-07T05:24:08;38.97;;;21.17;;
11807;SDS011;5961;42.640;23.380;2022-12-07T05:26:37;36.30;;;20.67;;
11807;SDS011;5961;42.640;23.380;2022-12-07T05:29:04;36.07;;;21.83;;
11807;SDS011;5961;42.640;23.380;2022-12-07T05:31:31;37.93;;;22.07;;
11807;SDS011;5961;42.640;23.380;2022-12-07T05:33:59;40.90;;;21.43;;
11807;SDS011;5961;42.640;23.380;2022-12-07T05:36:25;36.20;;;21.67;;
11807;SDS011;5961;42.640;23.380;2022-12-07T05:38:53;37.90;;;20.47;;
11807;SDS011;5961;42.640;23.380;2022-12-07T05:41:20;41.37;;;20.20;;
11807;SDS011;5961;42.640;23.380;2022-12-07T05:44:01;37.03;;;20.60;;
11807;SDS011;5961;42.640;23.380;2022-12-07T05:46:27;43.33;;;21.90;;
11807;SDS011;5961;42.640;23.380;2022-12-07T05:48:54;36.33;;;20.60;;
11807;SDS011;5961;42.640;23.380;2022-12-07T05:51:21;38.53;;;20.93;;
11807;SDS011;5961;42.640;23.380;2022-12-07T05:53:48;34.90;;;20.83;;
11807;SDS011;5961;42.640;23.380;2022-12-07T05:56:15;35.93;;;20.40;;
11807;SDS011;5961;42.640;23.380;2022-12-07T05:58:42;33.60;;;21.20;;
11807;SDS011;5961;42.640;23.380;2022-12-07T06:01:27;40.40;;;21.27;;
11807;SDS011;5961;42.640;23.380;2022-12-07T06:03:54;37.00;;;21.40;;
11807;SDS011;5961;42.640;23.380;2022-12-07T06:06:21;44.07;;;23.33;;
11807;SDS011;5961;42.640;23.380;2022-12-07T06:08:47;40.30;;;22.23;;
11807;SDS011;5961;42.640;23.380;2022-12-07T06:11:14;36.50;;;21.90;;
11807;SDS011;5961;42.640;23.380;2022-12-07T06:13:58;40.13;;;21.93;;
11807;SDS011;5961;42.640;23.380;2022-12-07T06:16:25;45.43;;;23.97;;
11807;SDS011;5961;42.640;23.380;2022-12-07T06:18:53;42.00;;;23.37;;
11807;SDS011;5961;42.640;23.380;2022-12-07T06:21:20;38.90;;;22.13;;
11807;SDS011;5961;42.640;23.380;2022-12-07T06:23:47;37.63;;;21.67;;
11807;SDS011;5961;42.640;23.380;2022-12-07T06:26:13;38.90;;;21.97;;
11807;SDS011;5961;42.640;23.380;2022-12-07T06:28:40;41.70;;;22.33;;
11807;SDS011;5961;42.640;23.380;2022-12-07T06:31:07;39.43;;;21.40;;
11807;SDS011;5961;42.640;23.380;2022-12-07T06:33:33;39.33;;;22.50;;
11807;SDS011;5961;42.640;23.380;2022-12-07T06:36:02;39.63;;;21.50;;
11807;SDS011;5961;42.640;23.380;2022-12-07T06:38:28;42.00;;;22.30;;
11807;SDS011;5961;42.640;23.380;2022-12-07T06:40:55;37.73;;;21.50;;
11807;SDS011;5961;42.640;23.380;2022-12-07T06:43:22;40.57;;;22.27;;
11807;SDS011;5961;42.640;23.380;2022-12-07T06:45:48;41.00;;;21.07;;
11807;SDS011;5961;42.640;23.380;2022-12-07T06:48:15;36.73;;;20.53;;
11807;SDS011;5961;42.640;23.380;2022-12-07T06:50:44;35.60;;;20.63;;
11807;SDS011;5961;42.640;23.380;2022-12-07T06:53:12;39.50;;;20.73;;
11807;SDS011;5961;42.640;23.380;2022-12-07T06:55:39;41.30;;;21.83;;
11807;SDS011;5961;42.640;23.380;2022-12-07T06:58:06;47.30;;;20.53;;
11807;SDS011;5961;42.640;23.380;2022-12-07T07:00:33;36.40;;;21.07;;
11807;SDS011;5961;42.640;23.380;2022-12-07T07:03:00;39.23;;;21.43;;
11807;SDS011;5961;42.640;23.380;2022-12-07T07:05:27;37.47;;;21.43;;
11807;SDS011;5961;42.640;23.380;2022-12-07T07:07:53;38.90;;;20.70;;
11807;SDS011;5961;42.640;23.380;2022-12-07T07:10:21;37.13;;;20.33;;
11807;SDS011;5961;42.640;23.380;2022-12-07T07:12:48;32.77;;;19.77;;
11807;SDS011;5961;42.640;23.380;2022-12-07T07:15:15;44.17;;;21.30;;
11807;SDS011;5961;42.640;23.380;2022-12-07T07:17:42;36.13;;;21.30;;
11807;SDS011;5961;42.640;23.380;2022-12-07T07:20:09;37.23;;;21.07;;
11807;SDS011;5961;42.640;23.380;2022-12-07T07:22:37;43.57;;;22.80;;
11807;SDS011;5961;42.640;23.380;2022-12-07T07:25:03;45.00;;;23.40;;
11807;SDS011;5961;42.640;23.380;2022-12-07T07:27:32;37.27;;;21.03;;
11807;SDS011;5961;42.640;23.380;2022-12-07T07:29:58;43.93;;;22.17;;
11807;SDS011;5961;42.640;23.380;2022-12-07T07:32:25;40.07;;;21.83;;
11807;SDS011;5961;42.640;23.380;2022-12-07T07:34:53;33.47;;;19.40;;
11807;SDS011;5961;42.640;23.380;2022-12-07T07:37:19;39.77;;;20.90;;
11807;SDS011;5961;42.640;23.380;2022-12-07T07:39:46;38.23;;;21.40;;
11807;SDS011;5961;42.640;23.380;2022-12-07T07:42:13;35.33;;;20.83;;
11807;SDS011;5961;42.640;23.380;2022-12-07T07:44:41;38.23;;;21.60;;
11807;SDS011;5961;42.640;23.380;2022-12-07T07:47:07;40.23;;;21.13;;
11807;SDS011;5961;42.640;23.380;2022-12-07T07:49:34;40.27;;;22.17;;
11807;SDS011;5961;42.640;23.380;2022-12-07T07:52:01;42.20;;;22.70;;
11807;SDS011;5961;42.640;23.380;2022-12-07T07:54:27;40.63;;;21.20;;
11807;SDS011;5961;42.640;23.380;2022-12-07T07:56:54;40.70;;;21.90;;
11807;SDS011;5961;42.640;23.380;2022-12-07T07:59:21;41.37;;;22.30;;
11807;SDS011;5961;42.640;23.380;2022-12-07T08:01:49;39.13;;;20.57;;
11807;SDS011;5961;42.640;23.380;2022-12-07T08:04:16;40.20;;;21.37;;
11807;SDS011;5961;42.640;23.380;2022-12-07T08:06:42;41.07;;;22.93;;
11807;SDS011;5961;42.640;23.380;2022-12-07T08:09:09;45.50;;;22.93;;
11807;SDS011;5961;42.640;23.380;2022-12-07T08:11:36;45.00;;;23.83;;
11807;SDS011;5961;42.640;23.380;2022-12-07T08:14:02;42.57;;;22.93;;
11807;SDS011;5961;42.640;23.380;2022-12-07T08:16:29;45.43;;;22.13;;
11807;SDS011;5961;42.640;23.380;2022-12-07T08:18:57;41.03;;;22.23;;
11807;SDS011;5961;42.640;23.380;2022-12-07T08:21:24;39.27;;;22.27;;
11807;SDS011;5961;42.640;23.380;2022-12-07T08:23:51;40.53;;;21.83;;
11807;SDS011;5961;42.640;23.380;2022-12-07T08:26:17;42.50;;;21.37;;
11807;SDS011;5961;42.640;23.380;2022-12-07T08:28:44;42.10;;;21.30;;
11807;SDS011;5961;42.640;23.380;2022-12-07T08:31:12;42.20;;;21.17;;
11807;SDS011;5961;42.640;23.380;2022-12-07T08:33:41;37.03;;;21.23;;
11807;SDS011;5961;42.640;23.380;2022-12-07T08:36:10;40.33;;;21.70;;
11807;SDS011;5961;42.640;23.380;2022-12-07T08:38:39;39.10;;;20.20;;
11807;SDS011;5961;42.640;23.380;2022-12-07T08:41:06;37.07;;;20.27;;
11807;SDS011;5961;42.640;23.380;2022-12-07T08:43:34;39.13;;;20.73;;
11807;SDS011;5961;42.640;23.380;2022-12-07T08:46:04;35.60;;;19.87;;
11807;SDS011;5961;42.640;23.380;2022-12-07T08:48:35;40.03;;;20.13;;
11807;SDS011;5961;42.640;23.380;2022-12-07T08:51:06;34.30;;;19.50;;
11807;SDS011;5961;42.640;23.380;2022-12-07T08:53:34;33.93;;;19.10;;
11807;SDS011;5961;42.640;23.380;2022-12-07T08:56:03;35.27;;;20.87;;
11807;SDS011;5961;42.640;23.380;2022-12-07T08:58:31;33.53;;;19.57;;
11807;SDS011;5961;42.640;23.380;2022-12-07T09:00:58;35.00;;;19.57;;
11807;SDS011;5961;42.640;23.380;2022-12-07T09:03:25;36.43;;;20.40;;
11807;SDS011;5961;42.640;23.380;2022-12-07T09:05:52;33.40;;;19.70;;
11807;SDS011;5961;42.640;23.380;2022-12-07T09:08:19;32.53;;;18.87;;
11807;SDS011;5961;42.640;23.380;2022-12-07T09:10:48;32.50;;;19.23;;
11807;SDS011;5961;42.640;23.380;2022-12-07T09:13:15;34.20;;;19.50;;
11807;SDS011;5961;42.640;23.380;2022-12-07T09:15:41;37.37;;;20.17;;
11807;SDS011;5961;42.640;23.380;2022-12-07T09:18:08;39.20;;;19.87;;
11807;SDS011;5961;42.640;23.380;2022-12-07T09:20:35;35.43;;;19.57;;
11807;SDS011;5961;42.640;23.380;2022-12-07T09:23:01;36.07;;;21.03;;
11807;SDS011;5961;42.640;23.380;2022-12-07T09:25:28;39.57;;;21.23;;
11807;SDS011;5961;42.640;23.380;2022-12-07T09:27:59;38.87;;;20.87;;
11807;SDS011;5961;42.640;23.380;2022-12-07T09:30:26;40.73;;;20.57;;
11807;SDS011;5961;42.640;23.380;2022-12-07T09:32:53;39.90;;;20.93;;
11807;SDS011;5961;42.640;23.380;2022-12-07T09:35:21;37.33;;;21.27;;
11807;SDS011;5961;42.640;23.380;2022-12-07T09:37:48;38.13;;;20.73;;
11807;SDS011;5961;42.640;23.380;2022-12-07T09:40:15;33.43;;;21.03;;
11807;SDS011;5961;42.640;23.380;2022-12-07T09:42:44;36.63;;;20.20;;
11807;SDS011;5961;42.640;23.380;2022-12-07T09:45:15;37.07;;;20.47;;
11807;SDS011;5961;42.640;23.380;2022-12-07T09:47:45;39.90;;;20.83;;
11807;SDS011;5961;42.640;23.380;2022-12-07T09:50:14;33.77;;;19.23;;
11807;SDS011;5961;42.640;23.380;2022-12-07T09:52:43;34.03;;;19.80;;
11807;SDS011;5961;42.640;23.380;2022-12-07T09:55:13;39.43;;;21.40;;
11807;SDS011;5961;42.640;23.380;2022-12-07T09:57:42;41.60;;;20.27;;
11807;SDS011;5961;42.640;23.380;2022-12-07T10:00:11;35.67;;;20.17;;
11807;SDS011;5961;42.640;23.380;2022-12-07T10:02:43;39.50;;;19.80;;
11807;SDS011;5961;42.640;23.380;2022-12-07T10:05:12;29.50;;;18.37;;
11807;SDS011;5961;42.640;23.380;2022-12-07T10:07:40;30.47;;;18.40;;
11807;SDS011;5961;42.640;23.380;2022-12-07T10:10:13;36.67;;;19.67;;
11807;SDS011;5961;42.640;23.380;2022-12-07T10:12:54;36.93;;;18.23;;
11807;SDS011;5961;42.640;23.380;2022-12-07T10:15:23;31.90;;;18.43;;
11807;SDS011;5961;42.640;23.380;2022-12-07T10:18:18;36.03;;;19.53;;
11807;SDS011;5961;42.640;23.380;2022-12-07T10:20:46;32.90;;;18.27;;
11807;SDS011;5961;42.640;23.380;2022-12-07T10:23:14;27.20;;;16.37;;
11807;SDS011;5961;42.640;23.380;2022-12-07T10:25:42;28.90;;;16.50;;
11807;SDS011;5961;42.640;23.380;2022-12-07T10:28:11;29.30;;;16.97;;
11807;SDS011;5961;42.640;23.380;2022-12-07T10:30:48;38.20;;;17.03;;
11807;SDS011;5961;42.640;23.380;2022-12-07T10:33:31;36.57;;;19.60;;
11807;SDS011;5961;42.640;23.380;2022-12-07T10:36:00;35.13;;;17.37;;
11807;SDS011;5961;42.640;23.380;2022-12-07T10:38:44;27.90;;;17.57;;
11807;SDS011;5961;42.640;23.380;2022-12-07T10:41:12;34.87;;;18.20;;
11807;SDS011;5961;42.640;23.380;2022-12-07T10:43:46;26.27;;;16.93;;
11807;SDS011;5961;42.640;23.380;2022-12-07T10:46:37;31.50;;;16.30;;
11807;SDS011;5961;42.640;23.380;2022-12-07T10:52:51;29.83;;;16.67;;
11807;SDS011;5961;42.640;23.380;2022-12-07T10:55:41;34.23;;;17.70;;
11807;SDS011;5961;42.640;23.380;2022-12-07T10:58:28;32.83;;;16.87;;
11807;SDS011;5961;42.640;23.380;2022-12-07T11:01:08;30.93;;;16.47;;
11807;SDS011;5961;42.640;23.380;2022-12-07T11:03:43;33.13;;;17.23;;
11807;SDS011;5961;42.640;23.380;2022-12-07T11:06:23;31.37;;;17.00;;
11807;SDS011;5961;42.640;23.380;2022-12-07T11:09:00;30.40;;;17.13;;
11807;SDS011;5961;42.640;23.380;2022-12-07T11:11:43;28.57;;;16.70;;
11807;SDS011;5961;42.640;23.380;2022-12-07T11:14:19;32.47;;;16.60;;
11807;SDS011;5961;42.640;23.380;2022-12-07T11:16:55;40.33;;;17.40;;
11807;SDS011;5961;42.640;23.380;2022-12-07T11:19:28;32.53;;;17.10;;
11807;SDS011;5961;42.640;23.380;2022-12-07T11:22:03;28.50;;;16.10;;
11807;SDS011;5961;42.640;23.380;2022-12-07T11:24:35;28.37;;;16.40;;
11807;SDS011;5961;42.640;23.380;2022-12-07T11:27:16;33.50;;;15.83;;
11807;SDS011;5961;42.640;23.380;2022-12-07T11:32:49;30.57;;;16.23;;
11807;SDS011;5961;42.640;23.380;2022-12-07T11:35:24;30.20;;;16.70;;
11807;SDS011;5961;42.640;23.380;2022-12-07T11:38:01;33.70;;;17.03;;
11807;SDS011;5961;42.640;23.380;2022-12-07T11:40:35;31.93;;;17.27;;
11807;SDS011;5961;42.640;23.380;2022-12-07T11:43:04;31.90;;;16.87;;
11807;SDS011;5961;42.640;23.380;2022-12-07T11:45:41;30.43;;;17.93;;
11807;SDS011;5961;42.640;23.380;2022-12-07T11:48:10;37.37;;;18.80;;
11807;SDS011;5961;42.640;23.380;2022-12-07T11:50:44;32.80;;;18.73;;
11807;SDS011;5961;42.640;23.380;2022-12-07T11:53:17;34.67;;;16.80;;
11807;SDS011;5961;42.640;23.380;2022-12-07T11:55:48;31.10;;;18.33;;
11807;SDS011;5961;42.640;23.380;2022-12-07T11:58:23;30.20;;;17.63;;
11807;SDS011;5961;42.640;23.380;2022-12-07T12:01:14;36.67;;;18.33;;
11807;SDS011;5961;42.640;23.380;2022-12-07T12:03:49;30.37;;;17.97;;
11807;SDS011;5961;42.640;23.380;2022-12-07T12:06:18;32.57;;;17.77;;
11807;SDS011;5961;42.640;23.380;2022-12-07T12:08:48;37.10;;;18.77;;
11807;SDS011;5961;42.640;23.380;2022-12-07T12:11:25;34.27;;;18.43;;
11807;SDS011;5961;42.640;23.380;2022-12-07T12:14:13;32.37;;;17.17;;
11807;SDS011;5961;42.640;23.380;2022-12-07T12:17:03;31.87;;;18.67;;
11807;SDS011;5961;42.640;23.380;2022-12-07T12:19:45;30.03;;;17.63;;
11807;SDS011;5961;42.640;23.380;2022-12-07T12:22:32;29.50;;;17.83;;
11807;SDS011;5961;42.640;23.380;2022-12-07T12:25:05;34.97;;;17.37;;
11807;SDS011;5961;42.640;23.380;2022-12-07T12:27:41;26.93;;;16.73;;
11807;SDS011;5961;42.640;23.380;2022-12-07T12:30:24;34.73;;;16.77;;
11807;SDS011;5961;42.640;23.380;2022-12-07T12:33:00;32.77;;;16.40;;
11807;SDS011;5961;42.640;23.380;2022-12-07T12:35:30;29.27;;;16.37;;
11807;SDS011;5961;42.640;23.380;2022-12-07T12:40:53;30.20;;;17.10;;
11807;SDS011;5961;42.640;23.380;2022-12-07T12:55:18;34.57;;;17.20;;
11807;SDS011;5961;42.640;23.380;2022-12-07T13:03:55;26.83;;;16.00;;
11807;SDS011;5961;42.640;23.380;2022-12-07T13:06:32;32.33;;;16.63;;
11807;SDS011;5961;42.640;23.380;2022-12-07T13:09:03;26.30;;;16.13;;
11807;SDS011;5961;42.640;23.380;2022-12-07T13:11:31;29.57;;;15.63;;
11807;SDS011;5961;42.640;23.380;2022-12-07T13:23:23;26.73;;;14.50;;
11807;SDS011;5961;42.640;23.380;2022-12-07T13:25:54;22.73;;;14.90;;
11807;SDS011;5961;42.640;23.380;2022-12-07T13:28:27;24.40;;;14.37;;
11807;SDS011;5961;42.640;23.380;2022-12-07T13:31:03;23.47;;;13.90;;
11807;SDS011;5961;42.640;23.380;2022-12-07T13:33:41;23.60;;;14.30;;
11807;SDS011;5961;42.640;23.380;2022-12-07T13:36:12;25.10;;;14.57;;
11807;SDS011;5961;42.640;23.380;2022-12-07T13:38:48;23.07;;;14.57;;
11807;SDS011;5961;42.640;23.380;2022-12-07T13:41:17;22.23;;;13.33;;
11807;SDS011;5961;42.640;23.380;2022-12-07T13:43:48;23.63;;;13.83;;
11807;SDS011;5961;42.640;23.380;2022-12-07T13:46:17;28.13;;;13.63;;
11807;SDS011;5961;42.640;23.380;2022-12-07T13:48:51;22.83;;;13.13;;
11807;SDS011;5961;42.640;23.380;2022-12-07T13:51:20;20.60;;;13.20;;
11807;SDS011;5961;42.640;23.380;2022-12-07T13:53:49;22.43;;;14.20;;
11807;SDS011;5961;42.640;23.380;2022-12-07T13:56:18;26.30;;;13.97;;
11807;SDS011;5961;42.640;23.380;2022-12-07T13:58:48;26.07;;;14.87;;
11807;SDS011;5961;42.640;23.380;2022-12-07T14:01:15;33.40;;;15.17;;
11807;SDS011;5961;42.640;23.380;2022-12-07T14:03:41;26.40;;;14.97;;
11807;SDS011;5961;42.640;23.380;2022-12-07T14:06:25;31.10;;;16.17;;
11807;SDS011;5961;42.640;23.380;2022-12-07T14:09:06;23.17;;;15.07;;
11807;SDS011;5961;42.640;23.380;2022-12-07T14:11:34;27.03;;;15.90;;
11807;SDS011;5961;42.640;23.380;2022-12-07T14:14:01;27.73;;;14.43;;
11807;SDS011;5961;42.640;23.380;2022-12-07T14:16:29;31.20;;;15.53;;
11807;SDS011;5961;42.640;23.380;2022-12-07T14:18:57;31.70;;;14.80;;
11807;SDS011;5961;42.640;23.380;2022-12-07T14:21:27;28.83;;;15.07;;
11807;SDS011;5961;42.640;23.380;2022-12-07T14:24:08;28.33;;;14.53;;
11807;SDS011;5961;42.640;23.380;2022-12-07T14:26:42;25.90;;;16.60;;
11807;SDS011;5961;42.640;23.380;2022-12-07T14:29:22;34.67;;;15.87;;
11807;SDS011;5961;42.640;23.380;2022-12-07T14:31:57;33.07;;;15.60;;
11807;SDS011;5961;42.640;23.380;2022-12-07T14:34:35;29.50;;;16.27;;
11807;SDS011;5961;42.640;23.380;2022-12-07T14:37:03;35.70;;;15.20;;
11807;SDS011;5961;42.640;23.380;2022-12-07T14:39:33;30.50;;;15.30;;
11807;SDS011;5961;42.640;23.380;2022-12-07T14:41:59;28.27;;;15.33;;
11807;SDS011;5961;42.640;23.380;2022-12-07T14:44:26;30.10;;;15.00;;
11807;SDS011;5961;42.640;23.380;2022-12-07T14:46:53;24.50;;;13.57;;
11807;SDS011;5961;42.640;23.380;2022-12-07T14:49:20;22.03;;;13.37;;
11807;SDS011;5961;42.640;23.380;2022-12-07T14:51:47;25.23;;;13.87;;
11807;SDS011;5961;42.640;23.380;2022-12-07T14:54:17;32.93;;;13.90;;
11807;SDS011;5961;42.640;23.380;2022-12-07T14:56:45;25.90;;;14.70;;
11807;SDS011;5961;42.640;23.380;2022-12-07T14:59:14;25.93;;;15.43;;
11807;SDS011;5961;42.640;23.380;2022-12-07T15:01:41;24.43;;;14.63;;
11807;SDS011;5961;42.640;23.380;2022-12-07T15:04:08;24.63;;;14.90;;
11807;SDS011;5961;42.640;23.380;2022-12-07T15:06:35;29.90;;;14.63;;
11807;SDS011;5961;42.640;23.380;2022-12-07T15:09:02;36.80;;;15.90;;
11807;SDS011;5961;42.640;23.380;2022-12-07T15:11:31;28.77;;;15.30;;
11807;SDS011;5961;42.640;23.380;2022-12-07T15:13:57;27.70;;;15.03;;
11807;SDS011;5961;42.640;23.380;2022-12-07T15:16:39;27.93;;;14.13;;
11807;SDS011;5961;42.640;23.380;2022-12-07T15:19:09;23.07;;;14.10;;